Airfield :
LOGIN :

Register | Disclaimer

   EN    FR    IT 

 










Legend :    VFR   Marginal VFR   IFR   Intensive IFR   Very Intensive IFR
Visi :
Ceiling :
>= 8 km
>= 3000ft
5 to 8 km
1000 to 3000 ft
1500m to 5 km
500 to 1000 ft
800 to 1500m
200 to 500 ft
< 800m
< 200 ft
Symbols :   Thunderstorms  Fog  Heavy snow  Heavy precipitations  Wind > 20 kt
SIGMETs :     Misc.  Thunderstorms  Icing  Turbulence  Mountain Waves  Volcanic Ashes






- Airport Elevation : 2096 ft
- IATA code : AUR


LFLW - Aurillac

CURRENT METAR :
  • 030730Z AUTO 00000KT CAVOK 23/13 Q1021 TEMPO 29010KT FEW080TCU

EXPIRED METARs :
  • 030700Z AUTO VRB02KT CAVOK 20/13 Q1021 TEMPO FEW080TCU
  • 030630Z AUTO VRB03KT CAVOK 18/12 Q1021 TEMPO FEW080TCU
  • 030600Z AUTO 10003KT 070V130 CAVOK 16/11 Q1021 TEMPO 29010KT FEW080TCU
  • 030530Z AUTO 11002KT CAVOK 14/11 Q1021 TEMPO 29010KT FEW080TCU
  • 030500Z AUTO 12003KT CAVOK 12/10 Q1021

TAF TAF LFLW
Valid from the 03 at 06:00 until the 03 at 15:00 UTC


030500Z 0306/0315 VRB03KT CAVOK
TEMPO 0306/0315 29010KT FEW080TCU
PROB30
TEMPO 0311/0315 VRB20G35KT 3000 TSRA BKN050CB



MET'MAP, your aeronautical weather chart ! - Copyright ORBIFLY December 2007 - Disclaimer

ORBIFLY MET'MAP TEAM :

Programming & Development : Alexandra Zaïnal
Original concept : Baudouin d'Aumeries
Technical & hardware support : Manuel Goepfert
Assistance : Marc-Olivier Méhu




SOURCES & CREDITS :

   NOAA